Atlanta, GA (30315)

2:11 AM EDT on March 27, 2015 (GMT -0400)
Grant Park | | Change Station
CLOSE
Current Station
Personal Weather Station
Location: Atlanta, GA
Elevation: 1050 ft
Nearby Weather Stations

Elev 1050 ft 33.74 °N, 84.37 °W | Updated 15 seconds ago

Overcast
Overcast
55.9 °F
Feels Like 55.9 °F
N
2.4
Wind Variable Wind from NNW
Gusts 7.2 mph

Today
High -- | Low -- °F
--% Chance of Precip.
Yesterday
High -- | Low -- °F
Precip. -- in
7:32 AM 7:54 PM
Waxing Crescent, 49% visible
Pressure 29.75 in
Visibility 10.0 miles
Clouds Few 1800 ft
Scattered Clouds 3000 ft
Mostly Cloudy 11000 ft
Overcast 20000 ft
Dew Point 50 °F
Humidity 81%
Rainfall 0.02 in
Snow Depth Not available.
UV 0 out of 12
Pollen 10.90 out of 12
Air Quality Not available.
Flu Activity Not available.
METAR KATL 270552Z 34015KT 10SM FEW018 SCT030 BKN110 OVC200 13/10 A2977 RMK AO2 WSHFT 0501 SLP074 FROPA 60000 T01330100 10206 20133 58009

More Conditions Fewer Conditions

Pressure 29.75 in
Visibility 10.0 miles
Clouds Few 1800 ft
Scattered Clouds 3000 ft
Mostly Cloudy 11000 ft
Overcast 20000 ft
Dew Point 50 °F
Humidity 81%
Rainfall 0.02 in
Snow Depth Not available.
UV 0 out of 12
Pollen 10.90 out of 12
Air Quality Not available.
Flu Activity Not available.
METAR KATL 270552Z 34015KT 10SM FEW018 SCT030 BKN110 OVC200 13/10 A2977 RMK AO2 WSHFT 0501 SLP074 FROPA 60000 T01330100 10206 20133 58009

More Conditions Fewer Conditions

10-Day Weather Forecast

Almanac

Astronomy

Mar. 27, 2015 Rise Set
Actual Time
Civil Twilight
Nautical Twilight
Astronomical Twilight
Moon
Length of Visible Light
Length of Day
Tomorrow will be .
, % of the Moon is Illuminated

Today's Extremes

State Highs State Lows

Community

WunderPhotos

Upload Photos

1,808,700 photos uploaded!

WunderBlogs® & News

Nearby

Air Quality

  Air Quality AQ Index Pollutant
Not available.

Snow Depth

Station Depth Elevation

Earthquake Activity

City Distance Mag. Time & Date
Minimum magnitude displayed is 2.5.

Coastal Water Temperatures

Place Temperature

Stations

Nearby Weather Stations

Station Location Temp. Windchill Dew Point Humidity Wind Precip. Elev Updated Type